sensor_id;sensor_type;location;lat;lon;timestamp;P1;durP1;ratioP1;P2;durP2;ratioP2
57856;SDS011;43683;48.650;9.290;2023-07-24T00:00:43;8.88;;;4.28;;
57856;SDS011;43683;48.650;9.290;2023-07-24T00:03:09;10.35;;;4.18;;
57856;SDS011;43683;48.650;9.290;2023-07-24T00:05:34;10.40;;;4.55;;
57856;SDS011;43683;48.650;9.290;2023-07-24T00:08:00;8.73;;;4.32;;
57856;SDS011;43683;48.650;9.290;2023-07-24T00:10:25;9.48;;;4.15;;
57856;SDS011;43683;48.650;9.290;2023-07-24T00:12:51;9.90;;;4.50;;
57856;SDS011;43683;48.650;9.290;2023-07-24T00:15:16;9.27;;;4.50;;
57856;SDS011;43683;48.650;9.290;2023-07-24T00:17:42;13.88;;;4.72;;
57856;SDS011;43683;48.650;9.290;2023-07-24T00:20:08;9.70;;;3.90;;
57856;SDS011;43683;48.650;9.290;2023-07-24T00:22:34;8.13;;;4.15;;
57856;SDS011;43683;48.650;9.290;2023-07-24T00:24:59;8.95;;;4.35;;
57856;SDS011;43683;48.650;9.290;2023-07-24T00:27:25;10.35;;;4.60;;
57856;SDS011;43683;48.650;9.290;2023-07-24T00:29:50;9.15;;;3.90;;
57856;SDS011;43683;48.650;9.290;2023-07-24T00:32:16;10.55;;;4.15;;
57856;SDS011;43683;48.650;9.290;2023-07-24T00:34:41;8.57;;;3.97;;
57856;SDS011;43683;48.650;9.290;2023-07-24T00:37:07;9.50;;;4.30;;
57856;SDS011;43683;48.650;9.290;2023-07-24T00:39:32;8.27;;;3.85;;
57856;SDS011;43683;48.650;9.290;2023-07-24T00:41:58;9.05;;;4.15;;
57856;SDS011;43683;48.650;9.290;2023-07-24T00:44:23;9.35;;;4.78;;
57856;SDS011;43683;48.650;9.290;2023-07-24T00:46:49;10.50;;;4.88;;
57856;SDS011;43683;48.650;9.290;2023-07-24T00:49:15;9.60;;;4.22;;
57856;SDS011;43683;48.650;9.290;2023-07-24T00:51:41;8.93;;;4.25;;
57856;SDS011;43683;48.650;9.290;2023-07-24T00:54:07;9.43;;;4.30;;
57856;SDS011;43683;48.650;9.290;2023-07-24T00:56:33;9.52;;;4.90;;
57856;SDS011;43683;48.650;9.290;2023-07-24T00:59:00;9.57;;;4.55;;
57856;SDS011;43683;48.650;9.290;2023-07-24T01:01:26;11.63;;;4.43;;
57856;SDS011;43683;48.650;9.290;2023-07-24T01:03:53;9.55;;;4.45;;
57856;SDS011;43683;48.650;9.290;2023-07-24T01:06:21;10.13;;;4.55;;
57856;SDS011;43683;48.650;9.290;2023-07-24T01:08:47;8.00;;;4.28;;
57856;SDS011;43683;48.650;9.290;2023-07-24T01:11:16;8.38;;;3.70;;
57856;SDS011;43683;48.650;9.290;2023-07-24T01:14:32;9.57;;;5.03;;
57856;SDS011;43683;48.650;9.290;2023-07-24T01:16:49;9.75;;;4.80;;
57856;SDS011;43683;48.650;9.290;2023-07-24T01:19:33;10.15;;;4.53;;
57856;SDS011;43683;48.650;9.290;2023-07-24T01:25:04;9.45;;;4.22;;
57856;SDS011;43683;48.650;9.290;2023-07-24T01:27:31;10.25;;;4.25;;
57856;SDS011;43683;48.650;9.290;2023-07-24T01:29:57;8.10;;;4.15;;
57856;SDS011;43683;48.650;9.290;2023-07-24T01:32:22;9.77;;;4.45;;
57856;SDS011;43683;48.650;9.290;2023-07-24T01:34:48;10.32;;;4.90;;
57856;SDS011;43683;48.650;9.290;2023-07-24T01:37:14;9.57;;;4.28;;
57856;SDS011;43683;48.650;9.290;2023-07-24T01:39:41;9.80;;;4.60;;
57856;SDS011;43683;48.650;9.290;2023-07-24T01:42:08;9.70;;;4.78;;
57856;SDS011;43683;48.650;9.290;2023-07-24T01:44:34;9.38;;;4.65;;
57856;SDS011;43683;48.650;9.290;2023-07-24T01:46:59;9.40;;;4.57;;
57856;SDS011;43683;48.650;9.290;2023-07-24T01:49:25;9.60;;;4.45;;
57856;SDS011;43683;48.650;9.290;2023-07-24T01:51:50;12.50;;;4.90;;
57856;SDS011;43683;48.650;9.290;2023-07-24T01:54:16;12.13;;;4.68;;
57856;SDS011;43683;48.650;9.290;2023-07-24T01:56:41;11.07;;;4.53;;
57856;SDS011;43683;48.650;9.290;2023-07-24T01:59:08;9.18;;;4.20;;
57856;SDS011;43683;48.650;9.290;2023-07-24T02:01:34;10.93;;;4.68;;
57856;SDS011;43683;48.650;9.290;2023-07-24T02:03:59;10.95;;;4.70;;
57856;SDS011;43683;48.650;9.290;2023-07-24T02:06:25;9.23;;;4.43;;
57856;SDS011;43683;48.650;9.290;2023-07-24T02:08:51;8.68;;;4.32;;
57856;SDS011;43683;48.650;9.290;2023-07-24T02:11:16;10.70;;;4.45;;
57856;SDS011;43683;48.650;9.290;2023-07-24T02:13:45;9.25;;;4.10;;
57856;SDS011;43683;48.650;9.290;2023-07-24T02:16:12;9.30;;;4.18;;
57856;SDS011;43683;48.650;9.290;2023-07-24T02:18:38;13.07;;;5.13;;
57856;SDS011;43683;48.650;9.290;2023-07-24T02:21:06;9.82;;;4.43;;
57856;SDS011;43683;48.650;9.290;2023-07-24T02:23:32;9.05;;;4.55;;
57856;SDS011;43683;48.650;9.290;2023-07-24T02:25:57;8.98;;;4.20;;
57856;SDS011;43683;48.650;9.290;2023-07-24T02:28:23;9.93;;;4.85;;
57856;SDS011;43683;48.650;9.290;2023-07-24T02:30:48;11.48;;;4.80;;
57856;SDS011;43683;48.650;9.290;2023-07-24T02:33:14;9.93;;;4.18;;
57856;SDS011;43683;48.650;9.290;2023-07-24T02:35:43;8.77;;;3.80;;
57856;SDS011;43683;48.650;9.290;2023-07-24T02:38:08;9.52;;;4.75;;
57856;SDS011;43683;48.650;9.290;2023-07-24T02:40:35;9.50;;;4.22;;
57856;SDS011;43683;48.650;9.290;2023-07-24T02:43:00;10.07;;;4.70;;
57856;SDS011;43683;48.650;9.290;2023-07-24T02:45:26;7.90;;;3.90;;
57856;SDS011;43683;48.650;9.290;2023-07-24T02:47:52;8.38;;;4.20;;
57856;SDS011;43683;48.650;9.290;2023-07-24T02:50:17;9.00;;;4.50;;
57856;SDS011;43683;48.650;9.290;2023-07-24T02:52:43;9.65;;;4.60;;
57856;SDS011;43683;48.650;9.290;2023-07-24T02:55:08;10.85;;;4.85;;
57856;SDS011;43683;48.650;9.290;2023-07-24T02:57:34;11.85;;;5.15;;
57856;SDS011;43683;48.650;9.290;2023-07-24T02:59:59;9.88;;;5.13;;
57856;SDS011;43683;48.650;9.290;2023-07-24T03:02:25;11.20;;;4.95;;
57856;SDS011;43683;48.650;9.290;2023-07-24T03:04:50;10.68;;;5.18;;
57856;SDS011;43683;48.650;9.290;2023-07-24T03:07:16;8.55;;;4.60;;
57856;SDS011;43683;48.650;9.290;2023-07-24T03:09:41;10.45;;;4.97;;
57856;SDS011;43683;48.650;9.290;2023-07-24T03:12:07;9.75;;;4.68;;
57856;SDS011;43683;48.650;9.290;2023-07-24T03:14:32;10.95;;;5.38;;
57856;SDS011;43683;48.650;9.290;2023-07-24T03:16:58;10.48;;;5.07;;
57856;SDS011;43683;48.650;9.290;2023-07-24T03:19:23;9.82;;;4.82;;
57856;SDS011;43683;48.650;9.290;2023-07-24T03:21:49;9.82;;;4.60;;
57856;SDS011;43683;48.650;9.290;2023-07-24T03:24:14;9.52;;;5.07;;
57856;SDS011;43683;48.650;9.290;2023-07-24T03:26:41;10.88;;;5.03;;
57856;SDS011;43683;48.650;9.290;2023-07-24T03:29:06;9.25;;;4.28;;
57856;SDS011;43683;48.650;9.290;2023-07-24T03:31:32;10.65;;;4.85;;
57856;SDS011;43683;48.650;9.290;2023-07-24T03:33:57;11.35;;;5.13;;
57856;SDS011;43683;48.650;9.290;2023-07-24T03:36:23;10.68;;;4.55;;
57856;SDS011;43683;48.650;9.290;2023-07-24T03:38:48;9.25;;;4.78;;
57856;SDS011;43683;48.650;9.290;2023-07-24T03:41:14;9.80;;;5.10;;
57856;SDS011;43683;48.650;9.290;2023-07-24T03:43:39;10.90;;;4.57;;
57856;SDS011;43683;48.650;9.290;2023-07-24T03:46:04;11.52;;;5.18;;
57856;SDS011;43683;48.650;9.290;2023-07-24T03:48:30;11.35;;;4.70;;
57856;SDS011;43683;48.650;9.290;2023-07-24T03:50:59;12.15;;;6.15;;
57856;SDS011;43683;48.650;9.290;2023-07-24T03:53:25;8.27;;;4.40;;
57856;SDS011;43683;48.650;9.290;2023-07-24T03:55:50;15.15;;;5.43;;
57856;SDS011;43683;48.650;9.290;2023-07-24T03:58:16;12.43;;;5.47;;
57856;SDS011;43683;48.650;9.290;2023-07-24T04:00:41;10.73;;;4.80;;
57856;SDS011;43683;48.650;9.290;2023-07-24T04:03:07;9.60;;;4.60;;
57856;SDS011;43683;48.650;9.290;2023-07-24T04:05:33;10.93;;;5.05;;
57856;SDS011;43683;48.650;9.290;2023-07-24T04:08:00;12.88;;;5.05;;
57856;SDS011;43683;48.650;9.290;2023-07-24T04:10:25;10.32;;;4.90;;
57856;SDS011;43683;48.650;9.290;2023-07-24T04:12:51;9.73;;;4.00;;
57856;SDS011;43683;48.650;9.290;2023-07-24T04:15:16;9.20;;;4.88;;
57856;SDS011;43683;48.650;9.290;2023-07-24T04:17:42;10.43;;;4.90;;
57856;SDS011;43683;48.650;9.290;2023-07-24T04:20:08;9.55;;;4.82;;
57856;SDS011;43683;48.650;9.290;2023-07-24T04:22:34;10.68;;;5.05;;
57856;SDS011;43683;48.650;9.290;2023-07-24T04:24:59;10.32;;;4.72;;
57856;SDS011;43683;48.650;9.290;2023-07-24T04:27:25;10.48;;;5.05;;
57856;SDS011;43683;48.650;9.290;2023-07-24T04:29:50;9.88;;;4.78;;
57856;SDS011;43683;48.650;9.290;2023-07-24T04:32:16;10.63;;;4.82;;
57856;SDS011;43683;48.650;9.290;2023-07-24T04:34:41;9.43;;;4.28;;
57856;SDS011;43683;48.650;9.290;2023-07-24T04:37:07;10.52;;;5.18;;
57856;SDS011;43683;48.650;9.290;2023-07-24T04:39:32;12.07;;;4.50;;
57856;SDS011;43683;48.650;9.290;2023-07-24T04:41:58;11.55;;;4.50;;
57856;SDS011;43683;48.650;9.290;2023-07-24T04:44:24;9.27;;;4.43;;
57856;SDS011;43683;48.650;9.290;2023-07-24T04:46:49;10.35;;;4.60;;
57856;SDS011;43683;48.650;9.290;2023-07-24T04:49:15;10.07;;;4.85;;
57856;SDS011;43683;48.650;9.290;2023-07-24T04:51:41;11.82;;;4.97;;
57856;SDS011;43683;48.650;9.290;2023-07-24T04:54:06;14.05;;;5.60;;
57856;SDS011;43683;48.650;9.290;2023-07-24T04:56:32;10.32;;;5.43;;
57856;SDS011;43683;48.650;9.290;2023-07-24T04:58:58;10.35;;;4.65;;
57856;SDS011;43683;48.650;9.290;2023-07-24T05:01:23;10.68;;;5.18;;
57856;SDS011;43683;48.650;9.290;2023-07-24T05:03:48;9.15;;;4.90;;
57856;SDS011;43683;48.650;9.290;2023-07-24T05:06:14;11.23;;;4.82;;
57856;SDS011;43683;48.650;9.290;2023-07-24T05:08:39;8.23;;;4.07;;
57856;SDS011;43683;48.650;9.290;2023-07-24T05:11:05;10.70;;;5.05;;
57856;SDS011;43683;48.650;9.290;2023-07-24T05:13:30;9.60;;;4.47;;
57856;SDS011;43683;48.650;9.290;2023-07-24T05:15:56;9.25;;;3.97;;
57856;SDS011;43683;48.650;9.290;2023-07-24T05:18:21;8.88;;;4.50;;
57856;SDS011;43683;48.650;9.290;2023-07-24T05:20:48;9.85;;;4.47;;
57856;SDS011;43683;48.650;9.290;2023-07-24T05:23:16;10.20;;;4.90;;
57856;SDS011;43683;48.650;9.290;2023-07-24T05:25:42;11.20;;;5.05;;
57856;SDS011;43683;48.650;9.290;2023-07-24T05:28:07;11.27;;;4.97;;
57856;SDS011;43683;48.650;9.290;2023-07-24T05:30:33;7.10;;;4.10;;
57856;SDS011;43683;48.650;9.290;2023-07-24T05:32:59;10.57;;;5.50;;
57856;SDS011;43683;48.650;9.290;2023-07-24T05:35:25;10.30;;;4.57;;
57856;SDS011;43683;48.650;9.290;2023-07-24T05:37:50;8.90;;;4.45;;
57856;SDS011;43683;48.650;9.290;2023-07-24T05:40:16;9.88;;;4.55;;
57856;SDS011;43683;48.650;9.290;2023-07-24T05:42:41;9.95;;;4.45;;
57856;SDS011;43683;48.650;9.290;2023-07-24T05:45:08;10.70;;;4.90;;
57856;SDS011;43683;48.650;9.290;2023-07-24T05:47:36;11.32;;;4.45;;
57856;SDS011;43683;48.650;9.290;2023-07-24T05:50:01;9.55;;;4.60;;
57856;SDS011;43683;48.650;9.290;2023-07-24T05:52:28;9.95;;;4.65;;
57856;SDS011;43683;48.650;9.290;2023-07-24T05:54:53;9.05;;;5.07;;
57856;SDS011;43683;48.650;9.290;2023-07-24T05:57:19;9.88;;;4.28;;
57856;SDS011;43683;48.650;9.290;2023-07-24T05:59:45;11.55;;;5.07;;
57856;SDS011;43683;48.650;9.290;2023-07-24T06:02:10;10.75;;;5.15;;
57856;SDS011;43683;48.650;9.290;2023-07-24T06:04:36;9.55;;;5.00;;
57856;SDS011;43683;48.650;9.290;2023-07-24T06:07:01;9.95;;;5.05;;
57856;SDS011;43683;48.650;9.290;2023-07-24T06:09:28;10.65;;;5.20;;
57856;SDS011;43683;48.650;9.290;2023-07-24T06:11:54;10.68;;;4.80;;
57856;SDS011;43683;48.650;9.290;2023-07-24T06:14:19;12.43;;;5.70;;
57856;SDS011;43683;48.650;9.290;2023-07-24T06:16:45;9.38;;;5.28;;
57856;SDS011;43683;48.650;9.290;2023-07-24T06:19:10;9.93;;;4.65;;
57856;SDS011;43683;48.650;9.290;2023-07-24T06:21:36;8.70;;;4.10;;
57856;SDS011;43683;48.650;9.290;2023-07-24T06:24:01;11.30;;;5.40;;
57856;SDS011;43683;48.650;9.290;2023-07-24T06:26:27;9.88;;;4.95;;
57856;SDS011;43683;48.650;9.290;2023-07-24T06:28:52;9.25;;;4.47;;
57856;SDS011;43683;48.650;9.290;2023-07-24T06:31:18;11.98;;;4.63;;
57856;SDS011;43683;48.650;9.290;2023-07-24T06:33:43;10.57;;;5.15;;
57856;SDS011;43683;48.650;9.290;2023-07-24T06:36:09;10.82;;;4.43;;
57856;SDS011;43683;48.650;9.290;2023-07-24T06:38:35;9.65;;;4.63;;
57856;SDS011;43683;48.650;9.290;2023-07-24T06:41:01;11.20;;;5.07;;
57856;SDS011;43683;48.650;9.290;2023-07-24T06:43:27;9.52;;;4.53;;
57856;SDS011;43683;48.650;9.290;2023-07-24T06:45:53;9.85;;;4.60;;
57856;SDS011;43683;48.650;9.290;2023-07-24T06:48:19;12.18;;;4.68;;
57856;SDS011;43683;48.650;9.290;2023-07-24T06:50:44;12.27;;;5.05;;
57856;SDS011;43683;48.650;9.290;2023-07-24T06:53:10;9.63;;;4.85;;
57856;SDS011;43683;48.650;9.290;2023-07-24T06:55:35;12.02;;;4.70;;
57856;SDS011;43683;48.650;9.290;2023-07-24T06:58:01;10.88;;;4.18;;
57856;SDS011;43683;48.650;9.290;2023-07-24T07:00:27;8.80;;;4.47;;
57856;SDS011;43683;48.650;9.290;2023-07-24T07:02:52;10.75;;;4.75;;
57856;SDS011;43683;48.650;9.290;2023-07-24T07:05:17;9.90;;;5.10;;
57856;SDS011;43683;48.650;9.290;2023-07-24T07:07:43;10.52;;;5.20;;
57856;SDS011;43683;48.650;9.290;2023-07-24T07:10:09;14.18;;;5.13;;
57856;SDS011;43683;48.650;9.290;2023-07-24T07:12:35;8.07;;;4.60;;
57856;SDS011;43683;48.650;9.290;2023-07-24T07:15:00;10.30;;;4.50;;
57856;SDS011;43683;48.650;9.290;2023-07-24T07:17:26;11.55;;;5.03;;
57856;SDS011;43683;48.650;9.290;2023-07-24T07:19:51;10.40;;;4.68;;
57856;SDS011;43683;48.650;9.290;2023-07-24T07:22:17;10.70;;;5.68;;
57856;SDS011;43683;48.650;9.290;2023-07-24T07:24:42;14.73;;;4.63;;
57856;SDS011;43683;48.650;9.290;2023-07-24T07:27:09;10.85;;;4.97;;
57856;SDS011;43683;48.650;9.290;2023-07-24T07:29:34;12.40;;;4.95;;
57856;SDS011;43683;48.650;9.290;2023-07-24T07:32:00;12.48;;;5.40;;
57856;SDS011;43683;48.650;9.290;2023-07-24T07:34:25;10.68;;;5.15;;
57856;SDS011;43683;48.650;9.290;2023-07-24T07:36:51;9.40;;;4.60;;
57856;SDS011;43683;48.650;9.290;2023-07-24T07:39:16;8.90;;;4.40;;
57856;SDS011;43683;48.650;9.290;2023-07-24T07:41:42;10.15;;;4.53;;
57856;SDS011;43683;48.650;9.290;2023-07-24T07:44:08;9.77;;;4.70;;
57856;SDS011;43683;48.650;9.290;2023-07-24T07:46:33;10.20;;;4.75;;
57856;SDS011;43683;48.650;9.290;2023-07-24T07:48:59;9.02;;;4.47;;
57856;SDS011;43683;48.650;9.290;2023-07-24T07:51:24;10.75;;;4.88;;
57856;SDS011;43683;48.650;9.290;2023-07-24T07:53:51;16.40;;;5.40;;
57856;SDS011;43683;48.650;9.290;2023-07-24T07:56:16;12.18;;;5.03;;
57856;SDS011;43683;48.650;9.290;2023-07-24T07:58:42;11.93;;;4.28;;
57856;SDS011;43683;48.650;9.290;2023-07-24T08:01:07;10.27;;;5.18;;
57856;SDS011;43683;48.650;9.290;2023-07-24T08:03:33;10.25;;;5.07;;
57856;SDS011;43683;48.650;9.290;2023-07-24T08:05:59;8.15;;;4.47;;
57856;SDS011;43683;48.650;9.290;2023-07-24T08:08:25;12.27;;;4.57;;
57856;SDS011;43683;48.650;9.290;2023-07-24T08:10:50;12.00;;;5.10;;
57856;SDS011;43683;48.650;9.290;2023-07-24T08:13:16;10.32;;;4.78;;
57856;SDS011;43683;48.650;9.290;2023-07-24T08:15:41;10.38;;;5.78;;
57856;SDS011;43683;48.650;9.290;2023-07-24T08:18:07;10.60;;;4.63;;
57856;SDS011;43683;48.650;9.290;2023-07-24T08:20:35;8.68;;;4.75;;
57856;SDS011;43683;48.650;9.290;2023-07-24T08:23:01;13.73;;;5.25;;
57856;SDS011;43683;48.650;9.290;2023-07-24T08:25:27;10.18;;;4.60;;
57856;SDS011;43683;48.650;9.290;2023-07-24T08:27:52;11.73;;;4.15;;
57856;SDS011;43683;48.650;9.290;2023-07-24T08:30:18;8.80;;;4.50;;
57856;SDS011;43683;48.650;9.290;2023-07-24T08:32:44;9.43;;;4.13;;
57856;SDS011;43683;48.650;9.290;2023-07-24T08:35:09;7.50;;;3.88;;
57856;SDS011;43683;48.650;9.290;2023-07-24T08:37:35;8.30;;;4.05;;
57856;SDS011;43683;48.650;9.290;2023-07-24T08:40:00;8.43;;;4.03;;
57856;SDS011;43683;48.650;9.290;2023-07-24T08:42:26;8.45;;;3.92;;
57856;SDS011;43683;48.650;9.290;2023-07-24T08:44:54;9.43;;;4.55;;
57856;SDS011;43683;48.650;9.290;2023-07-24T08:47:20;9.25;;;4.57;;
57856;SDS011;43683;48.650;9.290;2023-07-24T08:49:47;10.18;;;4.10;;
57856;SDS011;43683;48.650;9.290;2023-07-24T08:52:15;7.70;;;4.30;;
57856;SDS011;43683;48.650;9.290;2023-07-24T08:54:41;10.20;;;4.32;;
57856;SDS011;43683;48.650;9.290;2023-07-24T08:59:34;9.77;;;4.47;;
57856;SDS011;43683;48.650;9.290;2023-07-24T09:02:00;10.07;;;4.72;;
57856;SDS011;43683;48.650;9.290;2023-07-24T09:04:26;9.63;;;4.93;;
57856;SDS011;43683;48.650;9.290;2023-07-24T09:06:51;9.20;;;4.57;;
57856;SDS011;43683;48.650;9.290;2023-07-24T09:09:18;10.32;;;4.80;;
57856;SDS011;43683;48.650;9.290;2023-07-24T09:11:48;10.82;;;4.78;;
57856;SDS011;43683;48.650;9.290;2023-07-24T09:14:23;9.77;;;4.82;;
57856;SDS011;43683;48.650;9.290;2023-07-24T09:17:04;11.77;;;5.25;;
57856;SDS011;43683;48.650;9.290;2023-07-24T09:19:30;9.38;;;4.68;;
57856;SDS011;43683;48.650;9.290;2023-07-24T09:21:56;8.70;;;4.53;;
57856;SDS011;43683;48.650;9.290;2023-07-24T09:24:31;9.63;;;4.30;;
57856;SDS011;43683;48.650;9.290;2023-07-24T09:26:57;8.95;;;4.28;;
57856;SDS011;43683;48.650;9.290;2023-07-24T09:29:29;7.97;;;4.00;;
57856;SDS011;43683;48.650;9.290;2023-07-24T09:31:59;6.93;;;3.72;;
57856;SDS011;43683;48.650;9.290;2023-07-24T09:34:25;8.23;;;4.38;;
57856;SDS011;43683;48.650;9.290;2023-07-24T09:36:51;7.40;;;4.18;;
57856;SDS011;43683;48.650;9.290;2023-07-24T09:39:26;9.55;;;4.13;;
57856;SDS011;43683;48.650;9.290;2023-07-24T09:41:52;8.82;;;4.00;;
57856;SDS011;43683;48.650;9.290;2023-07-24T09:44:19;9.65;;;4.88;;
57856;SDS011;43683;48.650;9.290;2023-07-24T09:46:45;10.02;;;4.18;;
57856;SDS011;43683;48.650;9.290;2023-07-24T09:49:10;7.93;;;3.83;;
57856;SDS011;43683;48.650;9.290;2023-07-24T09:51:37;7.28;;;4.03;;
57856;SDS011;43683;48.650;9.290;2023-07-24T09:54:06;9.02;;;4.30;;
57856;SDS011;43683;48.650;9.290;2023-07-24T09:56:40;9.07;;;4.20;;
57856;SDS011;43683;48.650;9.290;2023-07-24T09:59:06;7.47;;;3.90;;
57856;SDS011;43683;48.650;9.290;2023-07-24T10:01:34;8.10;;;4.10;;
57856;SDS011;43683;48.650;9.290;2023-07-24T10:03:59;8.65;;;4.15;;
57856;SDS011;43683;48.650;9.290;2023-07-24T10:06:26;8.30;;;3.88;;
57856;SDS011;43683;48.650;9.290;2023-07-24T10:08:54;6.93;;;3.63;;
57856;SDS011;43683;48.650;9.290;2023-07-24T10:11:20;8.73;;;3.90;;
57856;SDS011;43683;48.650;9.290;2023-07-24T10:13:48;8.90;;;3.87;;
57856;SDS011;43683;48.650;9.290;2023-07-24T10:16:15;10.50;;;4.30;;
57856;SDS011;43683;48.650;9.290;2023-07-24T10:18:44;8.48;;;3.72;;
57856;SDS011;43683;48.650;9.290;2023-07-24T10:21:11;8.65;;;4.20;;
57856;SDS011;43683;48.650;9.290;2023-07-24T10:23:37;9.00;;;4.50;;
57856;SDS011;43683;48.650;9.290;2023-07-24T10:26:11;9.27;;;4.25;;
57856;SDS011;43683;48.650;9.290;2023-07-24T10:28:38;9.13;;;4.10;;
57856;SDS011;43683;48.650;9.290;2023-07-24T10:33:51;9.38;;;4.35;;
57856;SDS011;43683;48.650;9.290;2023-07-24T10:36:18;8.18;;;3.95;;
57856;SDS011;43683;48.650;9.290;2023-07-24T10:38:45;9.73;;;4.15;;
57856;SDS011;43683;48.650;9.290;2023-07-24T10:41:12;9.63;;;4.30;;
57856;SDS011;43683;48.650;9.290;2023-07-24T10:43:41;9.70;;;5.10;;
57856;SDS011;43683;48.650;9.290;2023-07-24T10:46:17;10.10;;;3.88;;
57856;SDS011;43683;48.650;9.290;2023-07-24T10:48:48;8.13;;;4.00;;
57856;SDS011;43683;48.650;9.290;2023-07-24T10:51:15;7.57;;;3.67;;
57856;SDS011;43683;48.650;9.290;2023-07-24T10:53:43;6.93;;;3.58;;
57856;SDS011;43683;48.650;9.290;2023-07-24T10:56:10;7.38;;;3.42;;
57856;SDS011;43683;48.650;9.290;2023-07-24T10:58:36;7.45;;;3.80;;
57856;SDS011;43683;48.650;9.290;2023-07-24T11:01:05;11.88;;;4.20;;
57856;SDS011;43683;48.650;9.290;2023-07-24T11:03:31;8.25;;;4.30;;
57856;SDS011;43683;48.650;9.290;2023-07-24T11:05:57;8.98;;;4.00;;
57856;SDS011;43683;48.650;9.290;2023-07-24T11:08:23;8.50;;;3.95;;
57856;SDS011;43683;48.650;9.290;2023-07-24T11:10:50;9.35;;;4.25;;
57856;SDS011;43683;48.650;9.290;2023-07-24T11:13:18;9.27;;;4.10;;
57856;SDS011;43683;48.650;9.290;2023-07-24T11:15:45;8.15;;;4.03;;
57856;SDS011;43683;48.650;9.290;2023-07-24T11:18:13;12.18;;;4.53;;
57856;SDS011;43683;48.650;9.290;2023-07-24T11:23:19;7.53;;;4.30;;
57856;SDS011;43683;48.650;9.290;2023-07-24T11:25:45;7.45;;;3.70;;
57856;SDS011;43683;48.650;9.290;2023-07-24T11:28:12;10.25;;;3.80;;
57856;SDS011;43683;48.650;9.290;2023-07-24T11:33:05;8.07;;;3.70;;
57856;SDS011;43683;48.650;9.290;2023-07-24T11:35:33;8.15;;;3.70;;
57856;SDS011;43683;48.650;9.290;2023-07-24T11:38:00;9.63;;;4.10;;
57856;SDS011;43683;48.650;9.290;2023-07-24T11:40:39;8.88;;;3.97;;
57856;SDS011;43683;48.650;9.290;2023-07-24T11:43:14;8.15;;;4.38;;
57856;SDS011;43683;48.650;9.290;2023-07-24T11:45:45;8.93;;;4.43;;
57856;SDS011;43683;48.650;9.290;2023-07-24T11:48:13;8.52;;;4.22;;
57856;SDS011;43683;48.650;9.290;2023-07-24T11:50:43;8.55;;;4.32;;
57856;SDS011;43683;48.650;9.290;2023-07-24T11:53:30;9.82;;;4.97;;
57856;SDS011;43683;48.650;9.290;2023-07-24T11:55:57;8.65;;;3.85;;
57856;SDS011;43683;48.650;9.290;2023-07-24T11:58:28;10.18;;;3.65;;
57856;SDS011;43683;48.650;9.290;2023-07-24T12:00:55;7.55;;;3.58;;
57856;SDS011;43683;48.650;9.290;2023-07-24T12:03:21;7.55;;;3.80;;
57856;SDS011;43683;48.650;9.290;2023-07-24T12:05:49;6.22;;;3.65;;
57856;SDS011;43683;48.650;9.290;2023-07-24T12:08:15;7.73;;;3.63;;
57856;SDS011;43683;48.650;9.290;2023-07-24T12:10:42;9.13;;;3.70;;
57856;SDS011;43683;48.650;9.290;2023-07-24T12:13:08;7.80;;;3.80;;
57856;SDS011;43683;48.650;9.290;2023-07-24T12:15:34;6.65;;;3.45;;
57856;SDS011;43683;48.650;9.290;2023-07-24T12:18:00;6.88;;;3.60;;
57856;SDS011;43683;48.650;9.290;2023-07-24T12:20:27;8.43;;;3.78;;
57856;SDS011;43683;48.650;9.290;2023-07-24T12:22:53;8.20;;;3.65;;
57856;SDS011;43683;48.650;9.290;2023-07-24T12:25:19;5.95;;;3.33;;
57856;SDS011;43683;48.650;9.290;2023-07-24T12:27:45;7.97;;;3.67;;
57856;SDS011;43683;48.650;9.290;2023-07-24T12:30:11;6.82;;;3.25;;
57856;SDS011;43683;48.650;9.290;2023-07-24T12:32:36;8.40;;;3.50;;
57856;SDS011;43683;48.650;9.290;2023-07-24T12:35:02;5.68;;;2.85;;
57856;SDS011;43683;48.650;9.290;2023-07-24T12:37:27;6.72;;;3.20;;
57856;SDS011;43683;48.650;9.290;2023-07-24T12:39:53;5.70;;;2.70;;
57856;SDS011;43683;48.650;9.290;2023-07-24T12:42:19;6.20;;;2.78;;
57856;SDS011;43683;48.650;9.290;2023-07-24T12:44:45;5.78;;;3.00;;
57856;SDS011;43683;48.650;9.290;2023-07-24T12:47:11;5.30;;;2.80;;
57856;SDS011;43683;48.650;9.290;2023-07-24T12:49:37;5.90;;;2.95;;
57856;SDS011;43683;48.650;9.290;2023-07-24T12:52:03;5.72;;;2.50;;
57856;SDS011;43683;48.650;9.290;2023-07-24T12:54:29;6.97;;;2.80;;
57856;SDS011;43683;48.650;9.290;2023-07-24T12:56:56;5.27;;;2.70;;
57856;SDS011;43683;48.650;9.290;2023-07-24T12:59:21;6.47;;;2.83;;
57856;SDS011;43683;48.650;9.290;2023-07-24T13:01:47;6.13;;;2.88;;
57856;SDS011;43683;48.650;9.290;2023-07-24T13:04:12;5.72;;;2.92;;
57856;SDS011;43683;48.650;9.290;2023-07-24T13:06:38;7.93;;;3.13;;
57856;SDS011;43683;48.650;9.290;2023-07-24T13:09:05;4.78;;;2.30;;
57856;SDS011;43683;48.650;9.290;2023-07-24T13:11:30;7.57;;;2.92;;
57856;SDS011;43683;48.650;9.290;2023-07-24T13:13:56;5.20;;;2.75;;
57856;SDS011;43683;48.650;9.290;2023-07-24T13:16:22;5.40;;;2.90;;
57856;SDS011;43683;48.650;9.290;2023-07-24T13:18:48;6.80;;;2.80;;
57856;SDS011;43683;48.650;9.290;2023-07-24T13:21:14;5.57;;;3.00;;
57856;SDS011;43683;48.650;9.290;2023-07-24T13:23:40;6.90;;;3.03;;
57856;SDS011;43683;48.650;9.290;2023-07-24T13:26:06;6.10;;;2.75;;
57856;SDS011;43683;48.650;9.290;2023-07-24T13:30:58;6.25;;;3.28;;
57856;SDS011;43683;48.650;9.290;2023-07-24T13:33:24;5.75;;;2.80;;
57856;SDS011;43683;48.650;9.290;2023-07-24T13:35:50;6.30;;;3.00;;
57856;SDS011;43683;48.650;9.290;2023-07-24T13:38:16;7.82;;;3.00;;
57856;SDS011;43683;48.650;9.290;2023-07-24T13:40:42;4.93;;;2.45;;
57856;SDS011;43683;48.650;9.290;2023-07-24T13:43:07;4.88;;;2.60;;
57856;SDS011;43683;48.650;9.290;2023-07-24T13:45:33;6.95;;;2.88;;
57856;SDS011;43683;48.650;9.290;2023-07-24T13:47:58;6.60;;;2.72;;
57856;SDS011;43683;48.650;9.290;2023-07-24T13:50:27;5.05;;;2.83;;
57856;SDS011;43683;48.650;9.290;2023-07-24T13:52:52;4.28;;;2.38;;
57856;SDS011;43683;48.650;9.290;2023-07-24T13:55:18;5.63;;;2.75;;
57856;SDS011;43683;48.650;9.290;2023-07-24T13:57:43;5.55;;;2.53;;
57856;SDS011;43683;48.650;9.290;2023-07-24T14:00:09;8.18;;;2.90;;
57856;SDS011;43683;48.650;9.290;2023-07-24T14:02:35;5.85;;;2.30;;
57856;SDS011;43683;48.650;9.290;2023-07-24T14:05:00;4.72;;;2.40;;
57856;SDS011;43683;48.650;9.290;2023-07-24T14:07:26;4.30;;;2.38;;
57856;SDS011;43683;48.650;9.290;2023-07-24T14:09:51;4.38;;;2.40;;
57856;SDS011;43683;48.650;9.290;2023-07-24T14:12:17;3.67;;;2.20;;
57856;SDS011;43683;48.650;9.290;2023-07-24T14:14:42;4.15;;;2.17;;
57856;SDS011;43683;48.650;9.290;2023-07-24T14:17:08;5.80;;;2.20;;
57856;SDS011;43683;48.650;9.290;2023-07-24T14:19:33;4.20;;;2.08;;
57856;SDS011;43683;48.650;9.290;2023-07-24T14:21:59;5.03;;;2.50;;
57856;SDS011;43683;48.650;9.290;2023-07-24T14:24:24;3.85;;;2.17;;
57856;SDS011;43683;48.650;9.290;2023-07-24T14:26:50;3.83;;;2.00;;
57856;SDS011;43683;48.650;9.290;2023-07-24T14:29:16;4.55;;;2.30;;
57856;SDS011;43683;48.650;9.290;2023-07-24T14:31:42;4.40;;;2.13;;
57856;SDS011;43683;48.650;9.290;2023-07-24T14:34:08;3.87;;;2.10;;
57856;SDS011;43683;48.650;9.290;2023-07-24T14:36:37;3.50;;;2.08;;
57856;SDS011;43683;48.650;9.290;2023-07-24T14:39:02;5.55;;;2.17;;
57856;SDS011;43683;48.650;9.290;2023-07-24T14:41:28;4.47;;;2.15;;
57856;SDS011;43683;48.650;9.290;2023-07-24T14:43:54;4.78;;;2.33;;
57856;SDS011;43683;48.650;9.290;2023-07-24T14:46:20;5.18;;;2.38;;
57856;SDS011;43683;48.650;9.290;2023-07-24T14:48:45;4.45;;;2.17;;
57856;SDS011;43683;48.650;9.290;2023-07-24T14:51:11;4.38;;;1.98;;
57856;SDS011;43683;48.650;9.290;2023-07-24T14:53:37;3.60;;;1.98;;